sensor_id;sensor_type;location;lat;lon;timestamp;pressure;altitude;pressure_sealevel;temperature;humidity
73516;BME280;61763;51.416;5.442;2023-05-02T00:02:17;101875.75;;;10.54;100.00
73516;BME280;61763;51.416;5.442;2023-05-02T00:04:43;101879.97;;;10.61;100.00
73516;BME280;61763;51.416;5.442;2023-05-02T00:07:09;101887.25;;;10.59;100.00
73516;BME280;61763;51.416;5.442;2023-05-02T00:09:35;101881.09;;;10.56;100.00
73516;BME280;61763;51.416;5.442;2023-05-02T00:12:00;101887.31;;;10.58;100.00
73516;BME280;61763;51.416;5.442;2023-05-02T00:14:26;101897.19;;;10.59;100.00
73516;BME280;61763;51.416;5.442;2023-05-02T00:16:52;101903.44;;;10.59;100.00
73516;BME280;61763;51.416;5.442;2023-05-02T00:19:17;101899.56;;;10.68;100.00
73516;BME280;61763;51.416;5.442;2023-05-02T00:21:46;101911.13;;;10.72;100.00
73516;BME280;61763;51.416;5.442;2023-05-02T00:24:12;101911.38;;;10.64;100.00
73516;BME280;61763;51.416;5.442;2023-05-02T00:26:37;101909.78;;;10.58;100.00
73516;BME280;61763;51.416;5.442;2023-05-02T00:29:02;101912.31;;;10.63;100.00
73516;BME280;61763;51.416;5.442;2023-05-02T00:31:28;101912.38;;;10.61;100.00
73516;BME280;61763;51.416;5.442;2023-05-02T00:33:54;101910.84;;;10.54;100.00
73516;BME280;61763;51.416;5.442;2023-05-02T00:36:20;101915.38;;;10.52;100.00
73516;BME280;61763;51.416;5.442;2023-05-02T00:38:45;101913.53;;;10.54;100.00
73516;BME280;61763;51.416;5.442;2023-05-02T00:41:11;101916.03;;;10.60;100.00
73516;BME280;61763;51.416;5.442;2023-05-02T00:43:37;101920.50;;;10.60;100.00
73516;BME280;61763;51.416;5.442;2023-05-02T00:46:04;101921.25;;;10.65;100.00
73516;BME280;61763;51.416;5.442;2023-05-02T00:48:30;101922.41;;;10.58;100.00
73516;BME280;61763;51.416;5.442;2023-05-02T00:50:56;101918.66;;;10.62;100.00
73516;BME280;61763;51.416;5.442;2023-05-02T00:53:22;101919.59;;;10.61;100.00
73516;BME280;61763;51.416;5.442;2023-05-02T00:55:47;101929.75;;;10.52;100.00
73516;BME280;61763;51.416;5.442;2023-05-02T00:58:15;101916.25;;;10.52;100.00
73516;BME280;61763;51.416;5.442;2023-05-02T01:03:35;101929.53;;;10.60;100.00
73516;BME280;61763;51.416;5.442;2023-05-02T01:08:54;101929.75;;;10.52;100.00
73516;BME280;61763;51.416;5.442;2023-05-02T01:11:47;101929.91;;;10.48;100.00
73516;BME280;61763;51.416;5.442;2023-05-02T01:14:14;101924.66;;;10.43;100.00
73516;BME280;61763;51.416;5.442;2023-05-02T01:16:42;101924.66;;;10.43;100.00
73516;BME280;61763;51.416;5.442;2023-05-02T01:19:16;101929.44;;;10.35;100.00
73516;BME280;61763;51.416;5.442;2023-05-02T01:21:44;101925.13;;;10.28;100.00
73516;BME280;61763;51.416;5.442;2023-05-02T01:24:11;101924.97;;;10.32;100.00
73516;BME280;61763;51.416;5.442;2023-05-02T01:29:13;101917.97;;;10.27;100.00
73516;BME280;61763;51.416;5.442;2023-05-02T01:31:41;101935.03;;;10.27;100.00
73516;BME280;61763;51.416;5.442;2023-05-02T01:34:09;101931.59;;;10.22;100.00
73516;BME280;61763;51.416;5.442;2023-05-02T01:36:37;101935.41;;;10.15;100.00
73516;BME280;61763;51.416;5.442;2023-05-02T01:39:05;101933.13;;;10.03;100.00
73516;BME280;61763;51.416;5.442;2023-05-02T01:41:32;101933.72;;;9.82;100.00
73516;BME280;61763;51.416;5.442;2023-05-02T01:44:01;101926.78;;;9.74;100.00
73516;BME280;61763;51.416;5.442;2023-05-02T01:49:32;101936.34;;;9.54;100.00
73516;BME280;61763;51.416;5.442;2023-05-02T01:52:02;101941.72;;;9.54;100.00
73516;BME280;61763;51.416;5.442;2023-05-02T01:54:29;101943.75;;;9.46;100.00
73516;BME280;61763;51.416;5.442;2023-05-02T01:56:57;101942.09;;;9.40;100.00
73516;BME280;61763;51.416;5.442;2023-05-02T01:59:24;101952.31;;;9.29;100.00
73516;BME280;61763;51.416;5.442;2023-05-02T02:01:50;101948.09;;;9.19;100.00
73516;BME280;61763;51.416;5.442;2023-05-02T02:04:16;101951.66;;;9.19;100.00
73516;BME280;61763;51.416;5.442;2023-05-02T02:06:47;101956.25;;;9.14;100.00
73516;BME280;61763;51.416;5.442;2023-05-02T02:09:13;101968.69;;;9.20;100.00
73516;BME280;61763;51.416;5.442;2023-05-02T02:11:48;101958.75;;;9.23;100.00
73516;BME280;61763;51.416;5.442;2023-05-02T02:14:20;101965.91;;;9.23;100.00
73516;BME280;61763;51.416;5.442;2023-05-02T02:16:46;101970.38;;;9.24;100.00
73516;BME280;61763;51.416;5.442;2023-05-02T02:19:14;101968.53;;;9.26;100.00
73516;BME280;61763;51.416;5.442;2023-05-02T02:21:41;101970.22;;;9.30;100.00
73516;BME280;61763;51.416;5.442;2023-05-02T02:24:07;101979.81;;;9.40;100.00
73516;BME280;61763;51.416;5.442;2023-05-02T02:26:35;101981.53;;;9.43;100.00
73516;BME280;61763;51.416;5.442;2023-05-02T02:29:02;101977.84;;;9.47;100.00
73516;BME280;61763;51.416;5.442;2023-05-02T02:31:31;101973.28;;;9.49;100.00
73516;BME280;61763;51.416;5.442;2023-05-02T02:33:57;101983.16;;;9.50;100.00
73516;BME280;61763;51.416;5.442;2023-05-02T02:36:33;101979.41;;;9.56;100.00
73516;BME280;61763;51.416;5.442;2023-05-02T02:39:17;101987.50;;;9.56;100.00
73516;BME280;61763;51.416;5.442;2023-05-02T02:42:05;101990.94;;;9.61;100.00
73516;BME280;61763;51.416;5.442;2023-05-02T02:44:48;101989.19;;;9.58;100.00
73516;BME280;61763;51.416;5.442;2023-05-02T02:47:31;101997.09;;;9.66;100.00
73516;BME280;61763;51.416;5.442;2023-05-02T03:00:24;102009.75;;;9.62;100.00
73516;BME280;61763;51.416;5.442;2023-05-02T03:02:51;102004.53;;;9.56;100.00
73516;BME280;61763;51.416;5.442;2023-05-02T03:05:18;102006.19;;;9.62;100.00
73516;BME280;61763;51.416;5.442;2023-05-02T03:07:44;102014.03;;;9.70;100.00
73516;BME280;61763;51.416;5.442;2023-05-02T03:10:09;102014.00;;;9.71;100.00
73516;BME280;61763;51.416;5.442;2023-05-02T03:12:36;102027.59;;;9.67;100.00
73516;BME280;61763;51.416;5.442;2023-05-02T03:17:51;102029.53;;;9.63;100.00
73516;BME280;61763;51.416;5.442;2023-05-02T03:20:17;102025.09;;;9.60;100.00
73516;BME280;61763;51.416;5.442;2023-05-02T03:22:43;102031.41;;;9.59;100.00
73516;BME280;61763;51.416;5.442;2023-05-02T03:25:08;102036.69;;;9.62;100.00
73516;BME280;61763;51.416;5.442;2023-05-02T03:27:34;102029.59;;;9.60;100.00
73516;BME280;61763;51.416;5.442;2023-05-02T03:29:59;102034.03;;;9.61;100.00
73516;BME280;61763;51.416;5.442;2023-05-02T03:32:24;102033.81;;;9.69;100.00
73516;BME280;61763;51.416;5.442;2023-05-02T03:34:50;102038.34;;;9.68;100.00
73516;BME280;61763;51.416;5.442;2023-05-02T03:37:16;102035.56;;;9.71;100.00
73516;BME280;61763;51.416;5.442;2023-05-02T03:39:43;102029.44;;;9.66;100.00
73516;BME280;61763;51.416;5.442;2023-05-02T03:42:08;102037.59;;;9.63;100.00
73516;BME280;61763;51.416;5.442;2023-05-02T03:44:33;102038.56;;;9.60;100.00
73516;BME280;61763;51.416;5.442;2023-05-02T03:46:59;102040.13;;;9.69;100.00
73516;BME280;61763;51.416;5.442;2023-05-02T03:49:24;102041.00;;;9.70;100.00
73516;BME280;61763;51.416;5.442;2023-05-02T03:51:50;102038.34;;;9.68;100.00
73516;BME280;61763;51.416;5.442;2023-05-02T03:54:15;102037.53;;;9.66;100.00
73516;BME280;61763;51.416;5.442;2023-05-02T03:56:40;102055.34;;;9.72;100.00
73516;BME280;61763;51.416;5.442;2023-05-02T03:59:06;102050.91;;;9.69;100.00
73516;BME280;61763;51.416;5.442;2023-05-02T04:01:31;102054.44;;;9.71;100.00
73516;BME280;61763;51.416;5.442;2023-05-02T04:03:57;102053.66;;;9.68;100.00
73516;BME280;61763;51.416;5.442;2023-05-02T04:06:22;102054.56;;;9.67;100.00
73516;BME280;61763;51.416;5.442;2023-05-02T04:08:47;102059.88;;;9.70;100.00
73516;BME280;61763;51.416;5.442;2023-05-02T04:11:13;102057.22;;;9.68;100.00
73516;BME280;61763;51.416;5.442;2023-05-02T04:13:40;102066.13;;;9.72;100.00
73516;BME280;61763;51.416;5.442;2023-05-02T04:16:06;102074.25;;;9.70;100.00
73516;BME280;61763;51.416;5.442;2023-05-02T04:18:31;102074.13;;;9.75;100.00
73516;BME280;61763;51.416;5.442;2023-05-02T04:20:56;102067.78;;;9.76;100.00
73516;BME280;61763;51.416;5.442;2023-05-02T04:23:22;102069.66;;;9.74;100.00
73516;BME280;61763;51.416;5.442;2023-05-02T04:25:53;102073.09;;;9.79;100.00
73516;BME280;61763;51.416;5.442;2023-05-02T04:28:20;102078.47;;;9.80;100.00
73516;BME280;61763;51.416;5.442;2023-05-02T04:30:47;102077.69;;;9.75;100.00
73516;BME280;61763;51.416;5.442;2023-05-02T04:33:12;102096.69;;;9.71;100.00
73516;BME280;61763;51.416;5.442;2023-05-02T04:35:39;102085.81;;;9.74;100.00
73516;BME280;61763;51.416;5.442;2023-05-02T04:38:05;102089.44;;;9.73;100.00
73516;BME280;61763;51.416;5.442;2023-05-02T04:40:31;102095.78;;;9.72;100.00
73516;BME280;61763;51.416;5.442;2023-05-02T04:42:56;102095.72;;;9.73;100.00
73516;BME280;61763;51.416;5.442;2023-05-02T04:45:21;102092.13;;;9.73;100.00
73516;BME280;61763;51.416;5.442;2023-05-02T04:47:47;102104.81;;;9.69;100.00
73516;BME280;61763;51.416;5.442;2023-05-02T04:50:12;102117.44;;;9.67;100.00
73516;BME280;61763;51.416;5.442;2023-05-02T04:52:37;102126.56;;;9.63;100.00
73516;BME280;61763;51.416;5.442;2023-05-02T04:55:03;102130.16;;;9.62;100.00
73516;BME280;61763;51.416;5.442;2023-05-02T04:57:29;102141.22;;;9.51;100.00
73516;BME280;61763;51.416;5.442;2023-05-02T04:59:55;102145.84;;;9.46;100.00
73516;BME280;61763;51.416;5.442;2023-05-02T05:02:20;102143.19;;;9.44;100.00
73516;BME280;61763;51.416;5.442;2023-05-02T05:04:46;102157.63;;;9.40;100.00
73516;BME280;61763;51.416;5.442;2023-05-02T05:07:12;102157.59;;;9.42;100.00
73516;BME280;61763;51.416;5.442;2023-05-02T05:09:37;102154.88;;;9.43;100.00
73516;BME280;61763;51.416;5.442;2023-05-02T05:12:03;102162.94;;;9.43;100.00
73516;BME280;61763;51.416;5.442;2023-05-02T05:14:28;102167.28;;;9.51;100.00
73516;BME280;61763;51.416;5.442;2023-05-02T05:16:55;102169.81;;;9.57;100.00
73516;BME280;61763;51.416;5.442;2023-05-02T05:19:20;102176.97;;;9.58;100.00
73516;BME280;61763;51.416;5.442;2023-05-02T05:21:46;102167.19;;;9.54;100.00
73516;BME280;61763;51.416;5.442;2023-05-02T05:24:11;102178.16;;;9.46;100.00
73516;BME280;61763;51.416;5.442;2023-05-02T05:26:37;102192.72;;;9.39;100.00
73516;BME280;61763;51.416;5.442;2023-05-02T05:29:02;102199.13;;;9.33;100.00
73516;BME280;61763;51.416;5.442;2023-05-02T05:31:27;102193.97;;;9.24;100.00
73516;BME280;61763;51.416;5.442;2023-05-02T05:33:53;102193.13;;;9.22;100.00
73516;BME280;61763;51.416;5.442;2023-05-02T05:36:18;102205.78;;;9.17;100.00
73516;BME280;61763;51.416;5.442;2023-05-02T05:38:45;102199.50;;;9.18;100.00
73516;BME280;61763;51.416;5.442;2023-05-02T05:41:10;102211.13;;;9.18;100.00
73516;BME280;61763;51.416;5.442;2023-05-02T05:43:36;102199.47;;;9.19;100.00
73516;BME280;61763;51.416;5.442;2023-05-02T05:46:02;102201.81;;;9.33;100.00
73516;BME280;61763;51.416;5.442;2023-05-02T05:48:27;102201.44;;;9.50;100.00
73516;BME280;61763;51.416;5.442;2023-05-02T05:50:53;102201.38;;;9.52;100.00
73516;BME280;61763;51.416;5.442;2023-05-02T05:53:18;102206.25;;;9.73;100.00
73516;BME280;61763;51.416;5.442;2023-05-02T05:55:44;102209.38;;;9.91;100.00
73516;BME280;61763;51.416;5.442;2023-05-02T05:58:10;102206.22;;;10.09;100.00
73516;BME280;61763;51.416;5.442;2023-05-02T06:00:39;102217.56;;;10.22;100.00
73516;BME280;61763;51.416;5.442;2023-05-02T06:03:05;102220.88;;;10.35;100.00
73516;BME280;61763;51.416;5.442;2023-05-02T06:05:31;102208.34;;;10.31;100.00
73516;BME280;61763;51.416;5.442;2023-05-02T06:07:57;102229.88;;;10.34;100.00
73516;BME280;61763;51.416;5.442;2023-05-02T06:10:23;102226.47;;;10.26;100.00
73516;BME280;61763;51.416;5.442;2023-05-02T06:12:48;102233.50;;;10.31;100.00
73516;BME280;61763;51.416;5.442;2023-05-02T06:15:14;102228.06;;;10.33;100.00
73516;BME280;61763;51.416;5.442;2023-05-02T06:17:39;102234.22;;;10.40;100.00
73516;BME280;61763;51.416;5.442;2023-05-02T06:20:05;102240.25;;;10.49;100.00
73516;BME280;61763;51.416;5.442;2023-05-02T06:22:31;102240.13;;;10.54;100.00
73516;BME280;61763;51.416;5.442;2023-05-02T06:24:56;102235.75;;;10.81;100.00
73516;BME280;61763;51.416;5.442;2023-05-02T06:27:22;102236.72;;;11.10;95.70
73516;BME280;61763;51.416;5.442;2023-05-02T06:29:50;102240.59;;;11.30;94.38
73516;BME280;61763;51.416;5.442;2023-05-02T06:32:15;102242.28;;;11.34;92.35
73516;BME280;61763;51.416;5.442;2023-05-02T06:34:42;102245.47;;;11.47;91.13
73516;BME280;61763;51.416;5.442;2023-05-02T06:37:08;102256.34;;;11.45;89.66
73516;BME280;61763;51.416;5.442;2023-05-02T06:39:33;102265.50;;;11.41;89.36
73516;BME280;61763;51.416;5.442;2023-05-02T06:41:59;102264.50;;;11.14;90.94
73516;BME280;61763;51.416;5.442;2023-05-02T06:44:24;102276.38;;;11.08;92.89
73516;BME280;61763;51.416;5.442;2023-05-02T06:46:50;102275.56;;;11.06;91.92
73516;BME280;61763;51.416;5.442;2023-05-02T06:49:15;102276.28;;;11.11;90.63
73516;BME280;61763;51.416;5.442;2023-05-02T06:51:42;102280.09;;;11.04;92.08
73516;BME280;61763;51.416;5.442;2023-05-02T06:54:08;102284.75;;;10.99;92.01
73516;BME280;61763;51.416;5.442;2023-05-02T06:56:34;102277.34;;;11.07;93.54
73516;BME280;61763;51.416;5.442;2023-05-02T06:58:59;102288.25;;;11.34;93.60
73516;BME280;61763;51.416;5.442;2023-05-02T07:01:25;102289.06;;;11.36;93.45
73516;BME280;61763;51.416;5.442;2023-05-02T07:03:50;102292.34;;;11.17;94.87
73516;BME280;61763;51.416;5.442;2023-05-02T07:06:16;102295.97;;;11.16;95.66
73516;BME280;61763;51.416;5.442;2023-05-02T07:08:41;102298.00;;;10.77;96.89
73516;BME280;61763;51.416;5.442;2023-05-02T07:11:07;102310.75;;;10.70;97.29
73516;BME280;61763;51.416;5.442;2023-05-02T07:13:32;102298.31;;;10.64;96.99
73516;BME280;61763;51.416;5.442;2023-05-02T07:15:58;102307.88;;;10.78;98.57
73516;BME280;61763;51.416;5.442;2023-05-02T07:18:23;102324.63;;;11.22;95.99
73516;BME280;61763;51.416;5.442;2023-05-02T07:20:49;102323.56;;;11.57;93.86
73516;BME280;61763;51.416;5.442;2023-05-02T07:23:14;102321.97;;;11.79;90.59
73516;BME280;61763;51.416;5.442;2023-05-02T07:25:40;102341.50;;;11.60;89.14
73516;BME280;61763;51.416;5.442;2023-05-02T07:28:06;102332.59;;;11.56;89.35
73516;BME280;61763;51.416;5.442;2023-05-02T07:30:31;102334.63;;;11.78;85.80
73516;BME280;61763;51.416;5.442;2023-05-02T07:32:57;102336.28;;;12.12;86.19
73516;BME280;61763;51.416;5.442;2023-05-02T07:35:22;102326.50;;;12.35;83.72
73516;BME280;61763;51.416;5.442;2023-05-02T07:37:47;102331.75;;;12.65;82.03
73516;BME280;61763;51.416;5.442;2023-05-02T07:40:13;102345.47;;;12.87;82.08
73516;BME280;61763;51.416;5.442;2023-05-02T07:42:38;102346.00;;;12.96;77.35
73516;BME280;61763;51.416;5.442;2023-05-02T07:45:06;102344.31;;;12.92;73.60
73516;BME280;61763;51.416;5.442;2023-05-02T07:47:32;102348.75;;;12.70;72.51
73516;BME280;61763;51.416;5.442;2023-05-02T07:49:57;102347.75;;;12.47;75.76
73516;BME280;61763;51.416;5.442;2023-05-02T07:52:22;102357.22;;;12.34;76.63
73516;BME280;61763;51.416;5.442;2023-05-02T07:54:48;102349.28;;;12.27;73.66
73516;BME280;61763;51.416;5.442;2023-05-02T07:57:14;102357.63;;;12.21;71.58
73516;BME280;61763;51.416;5.442;2023-05-02T07:59:39;102350.94;;;12.05;75.21
73516;BME280;61763;51.416;5.442;2023-05-02T08:02:05;102357.47;;;12.26;71.67
73516;BME280;61763;51.416;5.442;2023-05-02T08:04:31;102349.91;;;12.62;70.29
73516;BME280;61763;51.416;5.442;2023-05-02T08:06:57;102358.09;;;12.86;68.85
73516;BME280;61763;51.416;5.442;2023-05-02T08:09:22;102361.84;;;12.82;70.55
73516;BME280;61763;51.416;5.442;2023-05-02T08:11:47;102357.56;;;12.50;72.38
73516;BME280;61763;51.416;5.442;2023-05-02T08:14:14;102359.81;;;12.37;72.19
73516;BME280;61763;51.416;5.442;2023-05-02T08:16:40;102362.25;;;12.44;73.71
73516;BME280;61763;51.416;5.442;2023-05-02T08:19:05;102365.47;;;12.29;75.60
73516;BME280;61763;51.416;5.442;2023-05-02T08:21:31;102371.78;;;12.03;78.76
73516;BME280;61763;51.416;5.442;2023-05-02T08:23:57;102371.13;;;11.95;81.99
73516;BME280;61763;51.416;5.442;2023-05-02T08:26:23;102385.56;;;11.64;80.66
73516;BME280;61763;51.416;5.442;2023-05-02T08:28:50;102386.72;;;11.24;85.69
73516;BME280;61763;51.416;5.442;2023-05-02T08:31:16;102393.47;;;11.09;88.48
73516;BME280;61763;51.416;5.442;2023-05-02T08:33:41;102399.00;;;11.02;88.06
73516;BME280;61763;51.416;5.442;2023-05-02T08:36:11;102404.03;;;10.83;87.24
73516;BME280;61763;51.416;5.442;2023-05-02T08:38:37;102408.06;;;10.67;86.00
73516;BME280;61763;51.416;5.442;2023-05-02T08:41:02;102401.94;;;10.60;86.78
73516;BME280;61763;51.416;5.442;2023-05-02T08:43:34;102415.94;;;10.76;84.47
73516;BME280;61763;51.416;5.442;2023-05-02T08:46:00;102416.22;;;10.64;85.25
73516;BME280;61763;51.416;5.442;2023-05-02T08:48:27;102420.16;;;10.86;83.67
73516;BME280;61763;51.416;5.442;2023-05-02T08:50:52;102428.53;;;11.10;81.57
73516;BME280;61763;51.416;5.442;2023-05-02T08:53:19;102430.19;;;11.14;78.24
73516;BME280;61763;51.416;5.442;2023-05-02T08:55:45;102431.31;;;11.07;76.81
73516;BME280;61763;51.416;5.442;2023-05-02T08:58:12;102435.28;;;11.27;73.37
73516;BME280;61763;51.416;5.442;2023-05-02T09:00:38;102428.50;;;11.74;72.14
73516;BME280;61763;51.416;5.442;2023-05-02T09:03:10;102434.16;;;12.26;71.29
73516;BME280;61763;51.416;5.442;2023-05-02T09:05:40;102426.56;;;12.65;68.59
73516;BME280;61763;51.416;5.442;2023-05-02T09:08:07;102434.22;;;12.78;66.44
73516;BME280;61763;51.416;5.442;2023-05-02T09:10:35;102435.69;;;12.89;64.93
73516;BME280;61763;51.416;5.442;2023-05-02T09:16:20;102446.38;;;13.19;59.05
73516;BME280;61763;51.416;5.442;2023-05-02T09:18:54;102444.53;;;13.21;58.80
73516;BME280;61763;51.416;5.442;2023-05-02T09:21:25;102441.16;;;13.39;57.49
73516;BME280;61763;51.416;5.442;2023-05-02T09:23:53;102454.69;;;13.88;56.97
73516;BME280;61763;51.416;5.442;2023-05-02T09:26:21;102446.03;;;14.24;56.58
73516;BME280;61763;51.416;5.442;2023-05-02T09:28:51;102442.94;;;14.55;53.86
73516;BME280;61763;51.416;5.442;2023-05-02T09:31:20;102454.81;;;14.77;53.38
73516;BME280;61763;51.416;5.442;2023-05-02T09:33:46;102448.97;;;14.42;52.54
73516;BME280;61763;51.416;5.442;2023-05-02T09:36:17;102454.16;;;14.70;53.51
73516;BME280;61763;51.416;5.442;2023-05-02T09:38:45;102456.59;;;14.32;53.66
73516;BME280;61763;51.416;5.442;2023-05-02T09:41:11;102466.91;;;13.76;54.13
73516;BME280;61763;51.416;5.442;2023-05-02T09:43:38;102471.22;;;13.82;53.64
73516;BME280;61763;51.416;5.442;2023-05-02T09:46:23;102467.66;;;14.27;53.76
73516;BME280;61763;51.416;5.442;2023-05-02T09:51:19;102470.50;;;14.91;51.68
73516;BME280;61763;51.416;5.442;2023-05-02T09:53:46;102466.25;;;15.26;50.01
73516;BME280;61763;51.416;5.442;2023-05-02T09:56:11;102458.63;;;14.49;51.91
73516;BME280;61763;51.416;5.442;2023-05-02T09:58:37;102460.88;;;14.61;52.75
73516;BME280;61763;51.416;5.442;2023-05-02T10:01:02;102462.66;;;15.26;50.66
73516;BME280;61763;51.416;5.442;2023-05-02T10:03:28;102459.16;;;15.42;48.78
73516;BME280;61763;51.416;5.442;2023-05-02T10:05:55;102458.13;;;15.66;50.73
73516;BME280;61763;51.416;5.442;2023-05-02T10:08:23;102464.31;;;15.49;49.48
73516;BME280;61763;51.416;5.442;2023-05-02T10:10:54;102466.53;;;15.40;49.76
73516;BME280;61763;51.416;5.442;2023-05-02T10:13:25;102472.69;;;15.03;49.96
73516;BME280;61763;51.416;5.442;2023-05-02T10:16:02;102467.19;;;15.04;50.83
73516;BME280;61763;51.416;5.442;2023-05-02T10:21:24;102475.97;;;15.32;50.03
73516;BME280;61763;51.416;5.442;2023-05-02T10:23:53;102489.91;;;15.45;50.11
73516;BME280;61763;51.416;5.442;2023-05-02T10:26:19;102481.56;;;15.29;49.93
73516;BME280;61763;51.416;5.442;2023-05-02T10:28:48;102483.63;;;15.01;49.94
73516;BME280;61763;51.416;5.442;2023-05-02T10:31:15;102474.91;;;15.36;47.47
73516;BME280;61763;51.416;5.442;2023-05-02T10:33:43;102473.09;;;15.55;48.09
73516;BME280;61763;51.416;5.442;2023-05-02T10:36:10;102466.13;;;15.69;45.99
73516;BME280;61763;51.416;5.442;2023-05-02T10:38:39;102474.06;;;15.94;43.87
73516;BME280;61763;51.416;5.442;2023-05-02T10:41:15;102473.44;;;15.68;44.32
73516;BME280;61763;51.416;5.442;2023-05-02T10:43:45;102475.06;;;15.72;44.09
73516;BME280;61763;51.416;5.442;2023-05-02T10:46:36;102473.53;;;15.46;45.28
73516;BME280;61763;51.416;5.442;2023-05-02T10:49:11;102472.53;;;14.63;48.27
73516;BME280;61763;51.416;5.442;2023-05-02T10:51:39;102476.63;;;14.96;46.27
73516;BME280;61763;51.416;5.442;2023-05-02T10:54:24;102478.78;;;14.43;47.82
73516;BME280;61763;51.416;5.442;2023-05-02T10:59:37;102475.25;;;14.63;47.63
73516;BME280;61763;51.416;5.442;2023-05-02T11:05:06;102470.78;;;16.06;47.86
73516;BME280;61763;51.416;5.442;2023-05-02T11:07:36;102483.44;;;15.47;47.33
73516;BME280;61763;51.416;5.442;2023-05-02T11:12:43;102498.00;;;14.61;49.94
73516;BME280;61763;51.416;5.442;2023-05-02T11:18:06;102496.78;;;14.46;51.00
73516;BME280;61763;51.416;5.442;2023-05-02T11:20:34;102502.13;;;14.25;50.63
73516;BME280;61763;51.416;5.442;2023-05-02T11:31:04;102490.06;;;14.54;49.36
73516;BME280;61763;51.416;5.442;2023-05-02T11:33:30;102492.88;;;15.18;48.07
73516;BME280;61763;51.416;5.442;2023-05-02T11:35:56;102490.03;;;15.62;46.15
73516;BME280;61763;51.416;5.442;2023-05-02T11:38:23;102493.88;;;15.98;45.47
73516;BME280;61763;51.416;5.442;2023-05-02T11:40:50;102481.53;;;15.70;45.36
73516;BME280;61763;51.416;5.442;2023-05-02T11:43:17;102491.44;;;15.91;44.55
73516;BME280;61763;51.416;5.442;2023-05-02T11:45:44;102488.16;;;16.23;44.02
73516;BME280;61763;51.416;5.442;2023-05-02T11:48:12;102484.47;;;16.05;44.91
73516;BME280;61763;51.416;5.442;2023-05-02T11:50:46;102474.97;;;16.69;43.86
73516;BME280;61763;51.416;5.442;2023-05-02T11:53:13;102481.44;;;16.49;41.57
73516;BME280;61763;51.416;5.442;2023-05-02T11:55:45;102496.00;;;16.48;42.83
73516;BME280;61763;51.416;5.442;2023-05-02T11:58:15;102499.19;;;16.20;43.04
73516;BME280;61763;51.416;5.442;2023-05-02T12:00:42;102498.13;;;15.64;43.79
73516;BME280;61763;51.416;5.442;2023-05-02T12:03:21;102504.88;;;15.55;44.00
73516;BME280;61763;51.416;5.442;2023-05-02T12:05:46;102496.50;;;15.18;44.52
73516;BME280;61763;51.416;5.442;2023-05-02T12:08:19;102500.66;;;15.48;44.61
73516;BME280;61763;51.416;5.442;2023-05-02T12:10:45;102496.06;;;15.89;43.41
73516;BME280;61763;51.416;5.442;2023-05-02T12:13:11;102497.94;;;15.89;43.15
73516;BME280;61763;51.416;5.442;2023-05-02T12:15:36;102511.59;;;15.87;42.00
73516;BME280;61763;51.416;5.442;2023-05-02T12:18:02;102511.94;;;14.51;44.56
73516;BME280;61763;51.416;5.442;2023-05-02T12:20:29;102515.28;;;14.36;45.05
73516;BME280;61763;51.416;5.442;2023-05-02T12:22:55;102517.84;;;14.85;44.96
73516;BME280;61763;51.416;5.442;2023-05-02T12:25:21;102511.63;;;15.46;42.64
73516;BME280;61763;51.416;5.442;2023-05-02T12:28:00;102505.81;;;15.74;43.22
73516;BME280;61763;51.416;5.442;2023-05-02T12:30:29;102523.97;;;15.12;44.16
73516;BME280;61763;51.416;5.442;2023-05-02T12:32:59;102534.09;;;14.86;45.40
73516;BME280;61763;51.416;5.442;2023-05-02T12:35:28;102531.19;;;14.91;44.22
73516;BME280;61763;51.416;5.442;2023-05-02T12:37:54;102539.28;;;14.70;44.77
73516;BME280;61763;51.416;5.442;2023-05-02T12:40:31;102536.22;;;14.56;46.91
73516;BME280;61763;51.416;5.442;2023-05-02T12:43:02;102539.13;;;15.18;45.75
73516;BME280;61763;51.416;5.442;2023-05-02T12:45:32;102533.97;;;15.73;46.64
73516;BME280;61763;51.416;5.442;2023-05-02T12:48:24;102534.66;;;15.58;41.96
73516;BME280;61763;51.416;5.442;2023-05-02T12:50:50;102557.53;;;15.74;41.17
73516;BME280;61763;51.416;5.442;2023-05-02T12:53:16;102552.56;;;15.64;41.12
73516;BME280;61763;51.416;5.442;2023-05-02T12:55:41;102541.56;;;15.87;40.69
73516;BME280;61763;51.416;5.442;2023-05-02T12:58:08;102539.53;;;16.31;39.56
73516;BME280;61763;51.416;5.442;2023-05-02T13:00:39;102537.03;;;16.45;40.29
73516;BME280;61763;51.416;5.442;2023-05-02T13:03:05;102542.47;;;16.26;40.26
73516;BME280;61763;51.416;5.442;2023-05-02T13:05:31;102543.59;;;16.41;42.55
73516;BME280;61763;51.416;5.442;2023-05-02T13:07:57;102537.84;;;16.47;39.32
73516;BME280;61763;51.416;5.442;2023-05-02T13:10:23;102547.09;;;16.43;42.05
73516;BME280;61763;51.416;5.442;2023-05-02T13:12:50;102546.59;;;16.73;39.68
73516;BME280;61763;51.416;5.442;2023-05-02T13:15:16;102533.69;;;16.57;43.40
73516;BME280;61763;51.416;5.442;2023-05-02T13:17:41;102547.25;;;16.78;37.93
73516;BME280;61763;51.416;5.442;2023-05-02T13:20:07;102542.94;;;16.36;38.88
73516;BME280;61763;51.416;5.442;2023-05-02T13:22:34;102546.06;;;16.84;39.10
73516;BME280;61763;51.416;5.442;2023-05-02T13:25:00;102532.81;;;16.95;38.64
73516;BME280;61763;51.416;5.442;2023-05-02T13:27:26;102538.75;;;16.28;39.14
73516;BME280;61763;51.416;5.442;2023-05-02T13:29:52;102546.22;;;16.04;39.73
73516;BME280;61763;51.416;5.442;2023-05-02T13:32:17;102551.34;;;15.50;39.88
73516;BME280;61763;51.416;5.442;2023-05-02T13:34:43;102547.06;;;15.02;41.79
73516;BME280;61763;51.416;5.442;2023-05-02T13:37:09;102551.66;;;15.42;43.03
73516;BME280;61763;51.416;5.442;2023-05-02T13:39:35;102535.34;;;15.63;45.59
73516;BME280;61763;51.416;5.442;2023-05-02T13:42:01;102547.19;;;16.22;41.13